Time;durP1;ratioP1;P1;durP2;ratioP2;P2;SDS_P1;SDS_P2;PMS_P1;PMS_P2;Temp;Humidity;BMP_temperature;BMP_pressure;BME280_temperature;BME280_humidity;BME280_pressure;Samples;Min_cycle;Max_cycle;Signal;HPM_P1;HPM_P2
2023/03/02 00:02:03;;;;;;;14.25;7.43;;;5.80;45.60;;;;;;2450258;53;20968;-71
2023/03/02 00:05:13;;;;;;;14.07;7.30;;;5.70;45.60;;;;;;2395350;53;20978;-72
2023/03/02 00:07:39;;;;;;;13.13;7.07;;;5.70;45.70;;;;;;2431239;53;20997;-71
2023/03/02 00:10:06;;;;;;;13.57;7.43;;;5.70;45.60;;;;;;2333126;54;21464;-74
2023/03/02 00:12:33;;;;;;;15.73;7.80;;;5.70;45.70;;;;;;2333250;54;20933;-74
2023/03/02 00:14:59;;;;;;;14.50;7.93;;;5.70;45.70;;;;;;2333203;54;21012;-73
2023/03/02 00:17:28;;;;;;;14.77;7.28;;;5.70;45.90;;;;;;2332878;54;21056;-72
2023/03/02 00:20:08;;;;;;;13.27;7.12;;;5.70;45.90;;;;;;2333275;54;21023;-75
2023/03/02 00:22:35;;;;;;;15.35;7.93;;;5.70;45.90;;;;;;2332492;54;20932;-70
2023/03/02 00:25:02;;;;;;;13.15;7.05;;;5.70;45.90;;;;;;2333046;54;20992;-73
2023/03/02 00:27:29;;;;;;;17.65;8.82;;;5.70;46.00;;;;;;2333119;54;20933;-70
2023/03/02 00:29:56;;;;;;;14.87;7.80;;;5.70;46.00;;;;;;2333454;54;21028;-72
2023/03/02 00:32:22;;;;;;;15.20;8.38;;;5.70;46.10;;;;;;2570649;53;21543;-70
2023/03/02 00:34:48;;;;;;;19.42;8.80;;;5.70;46.10;;;;;;2577291;53;20933;-74
2023/03/02 00:37:15;;;;;;;16.42;8.35;;;5.70;46.20;;;;;;2333166;54;20933;-69
2023/03/02 00:39:41;;;;;;;15.85;8.13;;;5.70;46.20;;;;;;2338771;53;21087;-70
2023/03/02 00:42:07;;;;;;;13.00;6.90;;;5.70;46.20;;;;;;2333073;54;20940;-72
2023/03/02 00:44:33;;;;;;;16.05;8.73;;;5.70;46.20;;;;;;2339273;53;21052;-72
2023/03/02 00:47:00;;;;;;;15.75;8.35;;;5.70;46.20;;;;;;2384465;53;21409;-71
2023/03/02 00:49:27;;;;;;;14.77;7.72;;;5.70;46.20;;;;;;2333124;54;21020;-71
2023/03/02 00:51:53;;;;;;;15.07;7.87;;;5.70;46.20;;;;;;2333362;54;21016;-69
2023/03/02 00:54:19;;;;;;;16.77;7.93;;;5.70;46.30;;;;;;2333078;54;20933;-73
2023/03/02 00:56:45;;;;;;;17.73;8.70;;;5.70;46.30;;;;;;2405229;53;20952;-70
2023/03/02 00:59:27;;;;;;;15.75;8.50;;;5.70;46.20;;;;;;2333340;54;20944;-71
2023/03/02 01:01:58;;;;;;;14.57;7.60;;;5.80;46.30;;;;;;2333491;54;21284;-73
2023/03/02 01:04:29;;;;;;;14.93;7.80;;;5.80;46.30;;;;;;2367782;53;20955;-73
2023/03/02 01:07:09;;;;;;;14.65;7.05;;;5.80;46.30;;;;;;2333522;54;20921;-72
2023/03/02 01:09:36;;;;;;;13.45;6.28;;;5.80;46.30;;;;;;2533046;53;20980;-70
2023/03/02 01:12:04;;;;;;;14.55;7.62;;;5.80;46.80;;;;;;2333492;54;20948;-71
2023/03/02 01:14:30;;;;;;;17.12;7.95;;;5.80;46.20;;;;;;2499916;53;21513;-69
2023/03/02 01:16:56;;;;;;;15.88;8.60;;;5.80;46.20;;;;;;2333241;54;21427;-69
2023/03/02 01:19:23;;;;;;;15.65;8.27;;;5.80;46.20;;;;;;2501055;53;20989;-73
2023/03/02 01:21:49;;;;;;;13.18;7.62;;;5.80;46.30;;;;;;2333029;54;21315;-70
2023/03/02 01:24:15;;;;;;;16.05;8.13;;;5.80;46.30;;;;;;2332827;53;21217;-71
2023/03/02 01:26:41;;;;;;;15.70;8.70;;;5.80;46.30;;;;;;2332989;54;21763;-73
2023/03/02 01:29:08;;;;;;;17.02;8.60;;;5.80;46.30;;;;;;2332656;54;21806;-70
2023/03/02 01:31:34;;;;;;;14.55;7.97;;;5.80;46.30;;;;;;2342435;53;21412;-71
2023/03/02 01:34:00;;;;;;;16.37;8.73;;;5.80;46.30;;;;;;2333002;54;20937;-71
2023/03/02 01:36:26;;;;;;;16.08;8.35;;;5.70;46.20;;;;;;2332908;54;20997;-73
2023/03/02 01:38:53;;;;;;;14.35;7.53;;;5.70;46.20;;;;;;2333261;54;20944;-73
2023/03/02 01:41:19;;;;;;;14.15;7.70;;;5.70;46.20;;;;;;2333286;54;20968;-72
2023/03/02 01:43:45;;;;;;;12.50;6.70;;;5.70;46.20;;;;;;2332282;54;20993;-69
2023/03/02 01:46:23;;;;;;;13.05;6.87;;;5.70;46.10;;;;;;2333097;54;20976;-74
2023/03/02 01:49:09;;;;;;;12.73;6.93;;;5.70;46.10;;;;;;2401557;53;21000;-69
2023/03/02 01:51:39;;;;;;;15.45;7.65;;;5.60;46.00;;;;;;2333037;54;20999;-70
2023/03/02 01:54:07;;;;;;;12.73;6.57;;;5.60;46.00;;;;;;2332871;54;21489;-72
2023/03/02 01:56:36;;;;;;;13.10;7.70;;;5.60;45.90;;;;;;2399133;53;20989;-73
2023/03/02 01:59:05;;;;;;;13.05;6.40;;;5.60;45.90;;;;;;2333051;54;20984;-73
2023/03/02 02:01:31;;;;;;;12.48;6.00;;;5.50;45.90;;;;;;2332848;54;20933;-70
2023/03/02 02:03:57;;;;;;;13.35;6.68;;;5.50;45.90;;;;;;2333350;54;21064;-71
2023/03/02 02:06:30;;;;;;;14.68;7.80;;;5.50;45.90;;;;;;2456287;53;21378;-71
2023/03/02 02:08:56;;;;;;;12.63;6.60;;;5.40;45.80;;;;;;2458395;53;20976;-70
2023/03/02 02:11:23;;;;;;;16.27;8.23;;;5.40;45.80;;;;;;2347543;53;21028;-73
2023/03/02 02:13:52;;;;;;;15.10;8.02;;;5.40;45.90;;;;;;2386306;53;21485;-71
2023/03/02 02:16:18;;;;;;;14.23;7.82;;;5.30;45.80;;;;;;2333464;54;21284;-73
2023/03/02 02:18:44;;;;;;;13.05;7.40;;;5.30;45.80;;;;;;2333317;54;20956;-70
2023/03/02 02:21:11;;;;;;;14.98;7.68;;;5.20;45.80;;;;;;2333641;54;20945;-72
2023/03/02 02:24:41;;;;;;;18.05;8.32;;;5.20;45.80;;;;;;2333125;54;21512;-71
2023/03/02 02:27:07;;;;;;;18.45;8.73;;;5.20;46.00;;;;;;2391241;53;21473;-70
2023/03/02 02:29:38;;;;;;;15.27;8.40;;;5.10;45.80;;;;;;2332661;54;21528;-70
2023/03/02 02:32:27;;;;;;;20.55;9.77;;;5.10;45.80;;;;;;2444893;53;20929;-70
2023/03/02 02:35:10;;;;;;;17.42;8.80;;;5.00;45.90;;;;;;2464412;53;21475;-70
2023/03/02 02:37:45;;;;;;;15.98;8.57;;;5.00;45.90;;;;;;2330779;54;21020;-71
2023/03/02 02:40:14;;;;;;;17.20;8.07;;;4.80;45.70;;;;;;2332067;54;21060;-69
2023/03/02 02:42:45;;;;;;;17.08;8.68;;;4.90;45.90;;;;;;2331855;54;21305;-70
2023/03/02 02:45:23;;;;;;;16.17;8.73;;;4.80;45.90;;;;;;2332004;54;21233;-71
2023/03/02 02:47:49;;;;;;;15.77;8.13;;;4.80;45.90;;;;;;2332347;54;21489;-74
2023/03/02 02:50:37;;;;;;;14.63;7.62;;;4.80;45.90;;;;;;2335156;53;21666;-73
2023/03/02 02:53:18;;;;;;;17.12;9.05;;;4.70;45.90;;;;;;2349971;53;21221;-72
2023/03/02 02:55:45;;;;;;;15.18;7.32;;;4.70;46.00;;;;;;2331750;54;21213;-71
2023/03/02 02:58:44;;;;;;;15.02;7.78;;;4.70;45.90;;;;;;2332073;54;21068;-71
2023/03/02 03:01:13;;;;;;;17.48;8.35;;;4.60;45.90;;;;;;2332106;54;21004;-69
2023/03/02 03:03:39;;;;;;;13.88;6.70;;;4.60;45.90;;;;;;2331572;54;21421;-73
2023/03/02 03:06:07;;;;;;;13.50;7.10;;;4.50;45.80;;;;;;2331597;54;20972;-72
2023/03/02 03:08:54;;;;;;;15.95;7.43;;;4.50;45.90;;;;;;2331699;54;20937;-72
2023/03/02 03:11:23;;;;;;;14.27;7.43;;;4.40;45.90;;;;;;2360572;53;21327;-74
2023/03/02 03:14:04;;;;;;;17.42;8.57;;;4.40;45.80;;;;;;2331603;54;20981;-72
2023/03/02 03:16:31;;;;;;;19.27;8.63;;;4.40;46.00;;;;;;2497478;53;20976;-73
2023/03/02 03:19:05;;;;;;;19.15;9.23;;;4.30;46.00;;;;;;2331926;54;20988;-70
2023/03/02 03:21:31;;;;;;;20.73;9.77;;;4.30;46.10;;;;;;2418189;53;20968;-72
2023/03/02 03:23:57;;;;;;;17.60;8.02;;;4.20;46.00;;;;;;2568849;53;21075;-72
2023/03/02 03:26:23;;;;;;;17.67;8.93;;;4.20;46.10;;;;;;2346771;53;21009;-73
2023/03/02 03:28:50;;;;;;;20.35;9.68;;;4.20;46.10;;;;;;2331753;54;20944;-72
2023/03/02 03:31:16;;;;;;;22.15;10.80;;;4.10;46.20;;;;;;2332411;54;21426;-71
2023/03/02 03:33:42;;;;;;;19.23;9.48;;;4.10;46.30;;;;;;2332846;54;21437;-71
2023/03/02 03:36:09;;;;;;;21.50;9.70;;;4.10;46.30;;;;;;2333248;54;21004;-73
2023/03/02 03:38:35;;;;;;;15.52;8.30;;;4.00;46.30;;;;;;2333329;54;21336;-70
2023/03/02 03:41:01;;;;;;;19.35;8.93;;;4.00;46.40;;;;;;2357864;53;20956;-74
2023/03/02 03:43:27;;;;;;;17.90;7.43;;;4.00;46.40;;;;;;2332628;54;21385;-72
2023/03/02 03:45:54;;;;;;;15.10;7.03;;;4.00;46.40;;;;;;2333239;54;21485;-72
2023/03/02 03:48:20;;;;;;;17.90;8.60;;;4.00;46.50;;;;;;2372632;53;20925;-68
2023/03/02 03:50:46;;;;;;;15.35;7.93;;;4.00;46.50;;;;;;2332947;54;21505;-74
2023/03/02 03:53:12;;;;;;;14.10;7.15;;;3.90;46.50;;;;;;2393497;53;21265;-70
2023/03/02 03:55:39;;;;;;;16.90;8.05;;;3.90;46.50;;;;;;2333234;54;20976;-69
2023/03/02 03:58:05;;;;;;;15.25;7.45;;;3.90;46.60;;;;;;2333241;54;20984;-73
2023/03/02 04:00:31;;;;;;;15.00;7.37;;;3.90;46.70;;;;;;2332766;54;21004;-73
2023/03/02 04:02:57;;;;;;;16.92;8.00;;;3.90;46.70;;;;;;2333593;54;21415;-74
2023/03/02 04:05:24;;;;;;;16.85;7.87;;;3.90;46.80;;;;;;2333484;54;20988;-73
2023/03/02 04:07:50;;;;;;;18.62;8.57;;;3.90;46.80;;;;;;2333594;54;20944;-72
2023/03/02 04:10:16;;;;;;;15.95;8.13;;;3.90;46.80;;;;;;2333693;54;20940;-70
2023/03/02 04:12:42;;;;;;;14.63;7.45;;;3.90;46.90;;;;;;2332761;54;21469;-71
2023/03/02 04:15:11;;;;;;;12.60;6.25;;;3.90;46.90;;;;;;2339923;53;21326;-71
2023/03/02 04:17:37;;;;;;;12.70;6.65;;;3.90;46.90;;;;;;2333173;54;21035;-74
2023/03/02 04:20:08;;;;;;;16.65;8.25;;;3.90;46.90;;;;;;2333469;54;21772;-72
2023/03/02 04:22:34;;;;;;;14.30;6.75;;;3.90;47.20;;;;;;2333245;54;20979;-73
2023/03/02 04:25:00;;;;;;;13.57;7.30;;;3.90;47.00;;;;;;2398725;53;20980;-73
2023/03/02 04:27:27;;;;;;;18.27;9.00;;;3.90;47.00;;;;;;2362603;53;20921;-72
2023/03/02 04:29:53;;;;;;;15.80;8.20;;;4.00;47.10;;;;;;2333080;54;20924;-69
2023/03/02 04:32:19;;;;;;;12.90;6.90;;;4.00;47.10;;;;;;2333575;54;20936;-72
2023/03/02 04:34:45;;;;;;;12.35;6.70;;;4.00;47.10;;;;;;2332855;53;21319;-73
2023/03/02 04:37:12;;;;;;;17.33;7.80;;;4.00;47.10;;;;;;2403616;53;20932;-69
2023/03/02 04:39:38;;;;;;;15.10;6.72;;;4.00;47.20;;;;;;2332592;54;21040;-71
2023/03/02 04:42:04;;;;;;;13.65;7.43;;;4.00;47.20;;;;;;2332688;54;20984;-72
2023/03/02 04:44:30;;;;;;;15.93;8.25;;;4.00;47.20;;;;;;2341836;53;20984;-73
2023/03/02 04:46:57;;;;;;;13.05;7.03;;;4.00;47.20;;;;;;2405274;53;20988;-73
2023/03/02 04:49:23;;;;;;;15.82;7.60;;;4.00;47.30;;;;;;2359253;53;20936;-76
2023/03/02 04:51:49;;;;;;;19.35;8.35;;;4.00;47.30;;;;;;2333005;54;22078;-70
2023/03/02 04:54:20;;;;;;;17.67;8.90;;;4.00;47.30;;;;;;2332459;54;21385;-69
2023/03/02 04:56:50;;;;;;;14.70;7.60;;;4.00;47.40;;;;;;2332777;54;20968;-75
2023/03/02 04:59:24;;;;;;;15.18;7.47;;;4.10;47.50;;;;;;2332812;54;20964;-71
2023/03/02 05:01:54;;;;;;;17.05;8.32;;;4.10;47.50;;;;;;2333379;54;21398;-72
2023/03/02 05:04:21;;;;;;;15.95;8.23;;;4.10;47.50;;;;;;2455376;53;21417;-72
2023/03/02 05:06:47;;;;;;;14.23;7.78;;;4.10;47.50;;;;;;2422794;53;20941;-76
2023/03/02 05:09:16;;;;;;;11.82;6.43;;;4.10;47.50;;;;;;2512984;53;20980;-72
2023/03/02 05:11:42;;;;;;;17.12;9.00;;;4.10;47.50;;;;;;2499780;53;20969;-73
2023/03/02 05:14:09;;;;;;;18.00;9.32;;;4.10;47.50;;;;;;2333057;54;21447;-69
2023/03/02 05:16:36;;;;;;;21.65;10.05;;;4.10;47.60;;;;;;2333111;53;21410;-70
2023/03/02 05:19:03;;;;;;;18.52;9.45;;;4.10;47.70;;;;;;2415630;53;21531;-74
2023/03/02 05:21:30;;;;;;;16.40;8.10;;;4.10;47.80;;;;;;2346405;53;20985;-73
2023/03/02 05:23:56;;;;;;;16.48;8.60;;;4.20;47.90;;;;;;2333115;54;21418;-72
2023/03/02 05:26:22;;;;;;;16.50;8.10;;;4.10;47.80;;;;;;2344110;53;21398;-71
2023/03/02 05:28:48;;;;;;;21.85;10.63;;;4.20;47.80;;;;;;2333009;54;21535;-73
2023/03/02 05:31:33;;;;;;;16.70;8.52;;;4.20;47.90;;;;;;2333152;54;21017;-71
2023/03/02 05:34:00;;;;;;;15.95;8.57;;;4.20;47.90;;;;;;2577534;53;21455;-73
2023/03/02 05:36:26;;;;;;;20.00;9.55;;;4.20;47.80;;;;;;2332915;54;20944;-71
2023/03/02 05:38:53;;;;;;;17.73;9.50;;;4.30;47.90;;;;;;2333719;54;21085;-70
2023/03/02 05:41:19;;;;;;;14.38;7.75;;;4.30;47.90;;;;;;2332889;54;21765;-70
2023/03/02 05:43:45;;;;;;;13.93;7.90;;;4.30;47.90;;;;;;2332851;54;20963;-74
2023/03/02 05:46:11;;;;;;;15.05;8.05;;;4.30;47.90;;;;;;2332845;54;20981;-73
2023/03/02 05:48:56;;;;;;;14.18;7.37;;;4.30;47.90;;;;;;2332712;54;21044;-72
2023/03/02 05:51:22;;;;;;;14.98;7.70;;;4.30;48.10;;;;;;2353442;53;21380;-71
2023/03/02 05:53:49;;;;;;;14.48;7.03;;;4.30;47.90;;;;;;2332657;54;20952;-70
2023/03/02 05:56:15;;;;;;;15.15;7.57;;;4.40;48.00;;;;;;2339510;53;21335;-69
2023/03/02 05:58:42;;;;;;;15.43;8.15;;;4.40;48.00;;;;;;2333132;54;20956;-72
2023/03/02 06:01:09;;;;;;;15.30;7.47;;;4.30;48.00;;;;;;2359497;53;21441;-75
2023/03/02 06:03:36;;;;;;;15.93;8.23;;;4.40;48.10;;;;;;2332460;54;20953;-70
2023/03/02 06:06:02;;;;;;;15.27;7.87;;;4.40;48.10;;;;;;2333260;54;21264;-73
2023/03/02 06:08:28;;;;;;;17.20;8.68;;;4.40;48.10;;;;;;2371846;53;21065;-73
2023/03/02 06:10:55;;;;;;;14.48;8.18;;;4.40;48.10;;;;;;2332654;54;20960;-71
2023/03/02 06:13:21;;;;;;;15.32;8.52;;;4.40;48.10;;;;;;2333625;53;20952;-71
2023/03/02 06:15:47;;;;;;;18.30;8.15;;;4.50;48.10;;;;;;2338537;53;21449;-75
2023/03/02 06:18:14;;;;;;;16.17;8.70;;;4.50;48.20;;;;;;2336759;53;21469;-73
2023/03/02 06:20:40;;;;;;;15.10;8.05;;;4.50;48.20;;;;;;2333591;54;21012;-74
2023/03/02 06:23:06;;;;;;;18.98;9.05;;;4.50;48.10;;;;;;2333308;54;20968;-72
2023/03/02 06:25:34;;;;;;;16.62;8.85;;;4.50;48.10;;;;;;2363785;53;20953;-70
2023/03/02 06:28:01;;;;;;;18.02;9.20;;;4.50;48.10;;;;;;2333461;54;21007;-73
2023/03/02 06:30:27;;;;;;;18.37;8.68;;;4.50;48.10;;;;;;2332926;54;20980;-74
2023/03/02 06:32:54;;;;;;;17.50;8.85;;;4.60;48.20;;;;;;2333671;54;20928;-69
2023/03/02 06:35:20;;;;;;;18.70;9.65;;;4.50;48.10;;;;;;2333004;54;21052;-71
2023/03/02 06:37:46;;;;;;;18.55;9.23;;;4.60;48.20;;;;;;2333057;54;21008;-74
2023/03/02 06:40:13;;;;;;;18.48;8.88;;;4.60;48.20;;;;;;2356275;53;21021;-73
2023/03/02 06:42:40;;;;;;;17.52;8.88;;;4.60;48.20;;;;;;2332816;54;21020;-71
2023/03/02 06:45:07;;;;;;;18.20;9.38;;;4.60;48.20;;;;;;2333406;54;20928;-69
2023/03/02 06:47:33;;;;;;;17.73;9.85;;;4.60;48.20;;;;;;2332801;53;20955;-71
2023/03/02 06:49:59;;;;;;;19.42;9.45;;;4.70;48.30;;;;;;2333459;53;21076;-73
2023/03/02 06:52:28;;;;;;;18.52;9.57;;;4.70;48.30;;;;;;2333231;54;20925;-73
2023/03/02 06:54:55;;;;;;;18.85;9.77;;;4.70;48.30;;;;;;2333388;54;20964;-70
2023/03/02 06:57:21;;;;;;;18.42;9.40;;;4.70;48.30;;;;;;2432143;53;21630;-73
2023/03/02 06:59:47;;;;;;;17.75;9.02;;;4.70;48.30;;;;;;2333160;54;21474;-70
2023/03/02 07:02:13;;;;;;;20.35;9.98;;;4.70;48.40;;;;;;2332768;54;21521;-69
2023/03/02 07:04:40;;;;;;;19.98;10.35;;;4.70;48.30;;;;;;2332313;54;21374;-70
2023/03/02 07:07:06;;;;;;;17.62;8.73;;;4.70;48.40;;;;;;2333130;54;21047;-73
2023/03/02 07:09:33;;;;;;;17.50;9.45;;;4.70;48.40;;;;;;2394298;53;20977;-72
2023/03/02 07:11:59;;;;;;;16.90;8.15;;;4.70;48.40;;;;;;2333265;54;20948;-69
2023/03/02 07:14:25;;;;;;;18.87;9.52;;;4.70;48.40;;;;;;2333165;54;20996;-69
2023/03/02 07:16:52;;;;;;;17.77;9.27;;;4.70;48.40;;;;;;2332699;54;21176;-74
2023/03/02 07:19:18;;;;;;;19.95;9.43;;;4.80;48.50;;;;;;2332764;54;20956;-73
2023/03/02 07:21:44;;;;;;;19.33;10.10;;;4.80;49.10;;;;;;2344467;53;20945;-71
2023/03/02 07:24:10;;;;;;;22.42;10.20;;;4.80;48.50;;;;;;2333019;54;20937;-70
2023/03/02 07:26:37;;;;;;;20.02;10.35;;;4.80;49.10;;;;;;2332841;54;21101;-73
2023/03/02 07:29:03;;;;;;;16.77;9.57;;;4.80;48.60;;;;;;2333510;53;21464;-73
2023/03/02 07:31:29;;;;;;;21.00;10.70;;;4.90;48.60;;;;;;2371897;53;20930;-70
2023/03/02 07:33:56;;;;;;;18.65;10.23;;;4.90;48.70;;;;;;2427495;53;20972;-71
2023/03/02 07:36:22;;;;;;;22.92;11.98;;;4.90;48.70;;;;;;2363867;53;20948;-70
2023/03/02 07:38:48;;;;;;;23.48;12.52;;;4.90;48.70;;;;;;2332470;54;20919;-73
2023/03/02 07:41:15;;;;;;;24.08;12.00;;;5.00;48.70;;;;;;2335755;53;20955;-70
2023/03/02 07:43:41;;;;;;;25.33;12.57;;;5.00;48.70;;;;;;2330084;54;21060;-73
2023/03/02 07:46:08;;;;;;;19.10;10.13;;;5.00;48.70;;;;;;2333196;54;20988;-71
2023/03/02 07:48:34;;;;;;;20.62;11.48;;;5.00;48.70;;;;;;2333296;53;21449;-72
2023/03/02 07:51:01;;;;;;;19.73;10.43;;;5.00;48.80;;;;;;2333757;54;20992;-72
2023/03/02 07:53:27;;;;;;;21.75;10.95;;;5.00;48.80;;;;;;2365626;53;21253;-74
2023/03/02 07:55:53;;;;;;;22.62;11.30;;;5.00;48.80;;;;;;2333487;54;20944;-74
2023/03/02 07:58:23;;;;;;;23.67;11.70;;;5.10;48.80;;;;;;2349564;53;20913;-73
2023/03/02 08:00:49;;;;;;;22.90;11.02;;;5.10;48.80;;;;;;2331757;53;21018;-73
2023/03/02 08:03:15;;;;;;;21.30;11.48;;;5.10;48.90;;;;;;2333469;54;21047;-70
2023/03/02 08:05:44;;;;;;;25.75;11.27;;;5.10;48.90;;;;;;2332651;54;21393;-73
2023/03/02 08:08:10;;;;;;;24.15;11.75;;;5.20;49.00;;;;;;2333317;54;20907;-69
2023/03/02 08:10:37;;;;;;;23.20;11.00;;;5.20;48.90;;;;;;2332456;54;21000;-73
2023/03/02 08:13:03;;;;;;;22.17;11.55;;;5.20;48.90;;;;;;2488271;53;20948;-72
2023/03/02 08:15:33;;;;;;;22.77;11.40;;;5.20;48.90;;;;;;2337443;54;20940;-70
2023/03/02 08:17:59;;;;;;;21.02;11.35;;;5.30;49.00;;;;;;2325246;53;20912;-71
2023/03/02 08:20:25;;;;;;;18.33;10.38;;;5.20;48.90;;;;;;2333330;54;20889;-70
2023/03/02 08:22:52;;;;;;;21.95;11.30;;;5.30;49.00;;;;;;2351124;53;20976;-70
2023/03/02 08:25:18;;;;;;;21.37;10.95;;;5.30;49.00;;;;;;2393733;53;20904;-73
2023/03/02 08:27:44;;;;;;;21.45;11.02;;;5.30;49.00;;;;;;2365429;53;20988;-69
2023/03/02 08:30:11;;;;;;;18.23;10.23;;;5.30;48.90;;;;;;2333605;54;21714;-71
2023/03/02 08:32:38;;;;;;;16.75;9.20;;;5.30;48.90;;;;;;2333566;54;21837;-73
2023/03/02 08:35:06;;;;;;;19.33;9.70;;;5.40;49.00;;;;;;2333230;54;20916;-69
2023/03/02 08:37:33;;;;;;;20.75;9.65;;;5.40;49.10;;;;;;2369455;53;21091;-72
2023/03/02 08:39:59;;;;;;;18.00;10.02;;;5.40;49.10;;;;;;2333887;54;21092;-71
2023/03/02 08:42:25;;;;;;;21.02;10.07;;;5.50;49.20;;;;;;2333505;54;20929;-72
2023/03/02 08:44:52;;;;;;;20.62;10.13;;;5.50;49.20;;;;;;2333606;54;21080;-73
2023/03/02 08:47:18;;;;;;;20.33;9.35;;;5.50;49.20;;;;;;2333522;54;21080;-72
2023/03/02 08:49:44;;;;;;;20.20;11.20;;;5.50;49.20;;;;;;2333073;54;20937;-73
2023/03/02 08:52:14;;;;;;;20.23;11.10;;;5.60;49.30;;;;;;2333409;54;20929;-73
2023/03/02 08:54:40;;;;;;;19.83;10.52;;;5.60;49.30;;;;;;2333218;54;20964;-71
2023/03/02 08:57:10;;;;;;;19.55;9.88;;;5.70;49.40;;;;;;2333847;54;21084;-75
2023/03/02 08:59:37;;;;;;;17.27;9.75;;;5.70;49.40;;;;;;2333416;54;20925;-72
2023/03/02 09:02:04;;;;;;;22.40;10.48;;;5.80;49.40;;;;;;2333639;54;21488;-74
2023/03/02 09:04:30;;;;;;;19.23;10.57;;;5.80;49.40;;;;;;2333214;54;20990;-74
2023/03/02 09:06:57;;;;;;;18.08;10.13;;;5.80;49.30;;;;;;2332911;53;21051;-71
2023/03/02 09:09:24;;;;;;;18.85;10.43;;;5.90;49.30;;;;;;2332933;54;20998;-70
2023/03/02 09:11:52;;;;;;;18.08;9.88;;;5.90;49.30;;;;;;2331160;54;21040;-71
2023/03/02 09:14:19;;;;;;;18.87;10.40;;;5.90;49.20;;;;;;2333627;54;20965;-72
2023/03/02 09:16:46;;;;;;;19.73;11.00;;;6.00;49.30;;;;;;2351000;53;20996;-71
2023/03/02 09:19:12;;;;;;;22.87;11.18;;;6.00;49.30;;;;;;2334123;54;20944;-71
2023/03/02 09:21:39;;;;;;;20.27;12.32;;;6.00;49.30;;;;;;2333699;54;20980;-71
2023/03/02 09:24:07;;;;;;;24.75;12.50;;;6.10;49.30;;;;;;2333792;54;21024;-71
2023/03/02 09:26:33;;;;;;;20.67;11.15;;;6.10;49.30;;;;;;2333316;54;21060;-74
2023/03/02 09:29:00;;;;;;;21.75;11.90;;;6.10;49.80;;;;;;2415026;53;21432;-74
2023/03/02 09:31:26;;;;;;;22.25;11.52;;;6.10;49.20;;;;;;2332111;54;20936;-71
2023/03/02 09:33:56;;;;;;;19.85;10.80;;;6.10;49.20;;;;;;2331758;54;20960;-70
2023/03/02 09:36:22;;;;;;;23.73;12.50;;;6.10;49.20;;;;;;2330972;54;21484;-70
2023/03/02 09:38:49;;;;;;;22.95;12.68;;;6.10;49.20;;;;;;2347415;53;21944;-73
2023/03/02 09:45:23;;;;;;;26.02;12.68;;;6.20;49.30;;;;;;2332203;54;20956;-70
2023/03/02 09:51:31;;;;;;;16.15;8.48;;;6.20;49.70;;;;;;2340150;53;21084;-71
2023/03/02 09:54:09;;;;;;;19.00;9.70;;;6.40;49.70;;;;;;2390020;53;20980;-74
2023/03/02 09:56:38;;;;;;;14.23;7.85;;;6.40;49.50;;;;;;2438725;54;21433;-70
2023/03/02 10:00:41;;;;;;;17.48;9.68;;;6.50;49.50;;;;;;2332626;54;20972;-73
2023/03/02 10:03:15;;;;;;;23.42;11.60;;;6.50;49.60;;;;;;2357485;53;21387;-74
2023/03/02 10:05:53;;;;;;;19.62;11.00;;;6.60;49.70;;;;;;2404054;53;20952;-71
2023/03/02 10:08:20;;;;;;;18.15;10.68;;;6.70;49.90;;;;;;2367181;53;20976;-72
2023/03/02 10:11:09;;;;;;;19.05;10.77;;;6.80;50.00;;;;;;2332616;54;21284;-74
2023/03/02 10:14:49;;;;;;;17.60;9.77;;;6.90;50.00;;;;;;2332329;54;21411;-74
2023/03/02 10:17:37;;;;;;;20.52;11.07;;;7.00;50.00;;;;;;2332552;54;21015;-72
2023/03/02 10:20:12;;;;;;;16.12;9.73;;;7.00;49.90;;;;;;2372125;53;20965;-75
2023/03/02 10:22:44;;;;;;;20.02;10.68;;;7.20;50.00;;;;;;2332243;54;21003;-72
2023/03/02 10:25:36;;;;;;;22.13;11.60;;;7.20;50.00;;;;;;2332853;54;20964;-73
2023/03/02 10:28:20;;;;;;;20.37;11.10;;;7.30;50.20;;;;;;2332446;54;20944;-73
2023/03/02 10:31:39;;;;;;;21.73;11.35;;;7.40;50.10;;;;;;2332765;54;20973;-71
2023/03/02 10:34:10;;;;;;;23.27;11.90;;;7.50;50.00;;;;;;2339593;53;21532;-72
2023/03/02 10:36:38;;;;;;;25.65;13.18;;;7.60;49.80;;;;;;2332133;54;20960;-72
2023/03/02 10:39:12;;;;;;;20.73;12.68;;;7.60;49.80;;;;;;2336900;53;21005;-71
2023/03/02 10:42:04;;;;;;;27.70;13.15;;;7.70;49.90;;;;;;2332152;54;21576;-71
2023/03/02 10:44:36;;;;;;;24.33;13.05;;;7.80;49.90;;;;;;2370176;53;21071;-74
2023/03/02 10:47:07;;;;;;;21.53;11.70;;;7.80;49.80;;;;;;2333450;54;20943;-70
2023/03/02 10:49:34;;;;;;;20.10;11.85;;;7.90;49.80;;;;;;2361235;53;21000;-72
2023/03/02 10:52:20;;;;;;;20.85;11.68;;;7.90;49.70;;;;;;2356570;53;21015;-71
2023/03/02 10:54:46;;;;;;;23.08;12.07;;;8.00;49.80;;;;;;2334871;54;21012;-74
2023/03/02 11:04:01;;;;;;;20.37;12.80;;;8.10;49.80;;;;;;2328728;54;20958;-71
2023/03/02 11:06:29;;;;;;;14.85;8.50;;;8.40;49.80;;;;;;2392364;53;20964;-72
2023/03/02 11:09:03;;;;;;;20.02;10.88;;;8.40;49.50;;;;;;2406517;53;21524;-73
2023/03/02 11:11:29;;;;;;;19.73;11.12;;;8.50;49.60;;;;;;2332218;54;20924;-73
2023/03/02 11:14:08;;;;;;;35.13;24.20;;;8.50;49.60;;;;;;2332759;54;21032;-74
2023/03/02 11:16:36;;;;;;;28.02;17.27;;;8.60;49.60;;;;;;2360660;53;20972;-72
2023/03/02 11:19:04;;;;;;;25.95;16.80;;;8.60;49.60;;;;;;2367413;53;20976;-74
2023/03/02 11:21:43;;;;;;;23.10;13.50;;;8.70;49.50;;;;;;2564201;53;20984;-74
2023/03/02 11:24:35;;;;;;;22.35;12.88;;;8.70;49.30;;;;;;2332364;54;21412;-73
2023/03/02 11:27:12;;;;;;;21.85;12.80;;;8.80;49.30;;;;;;2332845;54;20940;-73
2023/03/02 11:30:30;;;;;;;22.80;13.68;;;8.80;49.30;;;;;;2412155;53;21752;-74
2023/03/02 11:33:17;;;;;;;23.05;12.65;;;8.90;49.30;;;;;;2335777;54;20976;-73
2023/03/02 11:35:52;;;;;;;19.75;10.68;;;8.90;49.20;;;;;;2331501;54;21422;-73
2023/03/02 11:38:40;;;;;;;20.37;12.65;;;9.00;49.30;;;;;;2342047;53;20944;-74
2023/03/02 11:41:46;;;;;;;18.20;11.23;;;9.00;49.20;;;;;;2333201;54;21324;-71
2023/03/02 11:44:17;;;;;;;19.50;11.40;;;9.10;49.20;;;;;;2332974;54;22030;-71
2023/03/02 11:46:47;;;;;;;20.48;12.10;;;9.10;49.20;;;;;;2332437;54;21465;-71
2023/03/02 11:49:20;;;;;;;18.25;10.88;;;9.20;49.20;;;;;;2332610;54;21020;-71
2023/03/02 11:51:54;;;;;;;20.50;11.52;;;9.20;49.10;;;;;;2350558;53;21315;-73
2023/03/02 11:54:44;;;;;;;19.48;10.93;;;9.20;49.20;;;;;;2389549;53;21490;-72
2023/03/02 11:57:22;;;;;;;17.92;10.23;;;9.30;49.10;;;;;;2354375;53;21596;-71
2023/03/02 11:59:48;;;;;;;17.25;10.18;;;9.30;49.10;;;;;;2332033;54;21021;-73
2023/03/02 12:02:14;;;;;;;22.52;11.73;;;9.30;49.00;;;;;;2332619;54;20956;-74
2023/03/02 12:04:41;;;;;;;21.70;13.07;;;9.40;49.10;;;;;;2331347;54;20951;-71
2023/03/02 12:07:19;;;;;;;25.60;15.07;;;9.40;49.00;;;;;;2331313;54;21037;-72
2023/03/02 12:10:02;;;;;;;22.27;12.68;;;9.50;49.00;;;;;;2332484;54;21263;-71
2023/03/02 12:12:42;;;;;;;19.12;11.18;;;9.50;49.00;;;;;;2334977;53;20935;-72
2023/03/02 12:15:36;;;;;;;20.20;12.27;;;9.50;49.00;;;;;;2444173;53;21335;-74
2023/03/02 12:18:14;;;;;;;25.95;12.85;;;9.60;49.00;;;;;;2407091;53;20976;-72
2023/03/02 12:20:41;;;;;;;22.83;11.95;;;9.60;49.00;;;;;;2361732;53;21596;-71
2023/03/02 12:23:09;;;;;;;20.52;11.82;;;9.70;49.00;;;;;;2333860;53;20970;-71
2023/03/02 12:25:38;;;;;;;21.33;11.88;;;9.70;48.90;;;;;;2414178;53;20940;-75
2023/03/02 12:28:04;;;;;;;20.48;11.73;;;9.70;48.90;;;;;;2333479;54;20987;-73
2023/03/02 12:30:31;;;;;;;20.65;10.95;;;9.70;48.80;;;;;;2332603;54;20988;-71
2023/03/02 12:33:03;;;;;;;25.20;13.25;;;9.80;48.80;;;;;;2333437;54;21529;-73
2023/03/02 12:35:31;;;;;;;24.58;13.75;;;9.80;48.80;;;;;;2309547;54;21000;-72
2023/03/02 12:38:05;;;;;;;21.58;12.13;;;9.80;48.80;;;;;;2376597;53;21757;-72
2023/03/02 12:40:51;;;;;;;21.90;12.37;;;9.90;48.90;;;;;;2391695;53;21508;-75
2023/03/02 12:46:51;;;;;;;19.52;11.40;;;9.90;48.90;;;;;;2333025;54;21753;-75
2023/03/02 12:50:03;;;;;;;15.75;8.65;;;9.90;48.80;;;;;;2363899;53;21004;-72
2023/03/02 12:52:33;;;;;;;19.17;10.38;;;10.10;47.80;;;;;;2332887;54;20920;-72
2023/03/02 12:55:21;;;;;;;18.05;10.15;;;10.10;48.40;;;;;;2339601;53;20936;-74
2023/03/02 12:57:49;;;;;;;20.27;9.95;;;10.10;47.70;;;;;;2334655;54;21440;-74
2023/03/02 13:00:16;;;;;;;17.55;9.70;;;10.10;47.80;;;;;;2345627;53;21004;-72
2023/03/02 13:02:50;;;;;;;14.70;9.25;;;10.20;47.90;;;;;;2331948;54;21465;-73
2023/03/02 13:05:24;;;;;;;17.23;10.40;;;10.20;47.90;;;;;;2333132;54;20952;-74
2023/03/02 13:08:16;;;;;;;19.20;11.73;;;10.20;47.80;;;;;;2334505;54;22524;-72
2023/03/02 13:10:52;;;;;;;;;;;10.30;47.90;;;;;;2359731;53;21034;-74
2023/03/02 13:13:42;;;;;;;16.15;9.45;;;10.30;47.90;;;;;;2391130;53;20620;-72
2023/03/02 13:16:28;;;;;;;16.02;9.23;;;10.40;47.80;;;;;;2332819;54;20953;-75
2023/03/02 13:18:59;;;;;;;16.15;9.98;;;10.40;47.80;;;;;;2335419;53;20948;-72
2023/03/02 13:21:43;;;;;;;18.08;10.40;;;10.40;47.90;;;;;;2333145;54;20980;-75